createdAt,value
2019-05-13T00:00:03.602Z,103000.40
2019-05-13T00:02:31.271Z,102999.03
2019-05-13T00:04:59.551Z,102998.94
2019-05-13T00:07:27.902Z,103001.94
2019-05-13T00:09:56.201Z,103000.63
2019-05-13T00:12:24.508Z,103002.55
2019-05-13T00:14:54.013Z,103003.95
2019-05-13T00:17:23.662Z,103008.83
2019-05-13T00:19:53.232Z,103008.51
2019-05-13T00:22:23.421Z,103011.43
2019-05-13T00:24:51.658Z,103018.98
2019-05-13T00:27:19.951Z,103012.77
2019-05-13T00:29:48.240Z,103010.67
2019-05-13T00:32:16.543Z,103014.65
2019-05-13T00:34:44.853Z,103008.38
2019-05-13T00:37:14.688Z,103010.30
2019-05-13T00:39:44.206Z,103014.94
2019-05-13T00:42:14.298Z,103011.70
2019-05-13T00:44:44.334Z,103013.43
2019-05-13T00:47:13.311Z,103018.59
2019-05-13T00:49:43.587Z,103011.47
2019-05-13T00:52:11.679Z,103016.75
2019-05-13T00:54:39.978Z,103009.02
2019-05-13T00:57:08.272Z,103001.24
2019-05-13T00:59:36.856Z,103010.06
2019-05-13T01:02:05.237Z,103012.62
2019-05-13T01:04:34.032Z,103005.71
2019-05-13T01:07:04.354Z,103001.28
2019-05-13T01:09:34.228Z,103001.09
2019-05-13T01:12:04.359Z,103003.13
2019-05-13T01:14:34.200Z,103000.25
2019-05-13T01:17:03.940Z,102996.08
2019-05-13T01:19:34.165Z,102997.77
2019-05-13T01:22:03.427Z,102997.38
2019-05-13T01:24:33.627Z,103000.52
2019-05-13T01:27:03.892Z,102997.18
2019-05-13T01:29:34.129Z,102994.82
2019-05-13T01:32:04.273Z,103003.18
2019-05-13T01:34:33.940Z,103001.31
2019-05-13T01:37:04.293Z,102994.10
2019-05-13T01:39:35.000Z,102993.51
2019-05-13T01:42:03.711Z,102989.84
2019-05-13T01:44:33.509Z,102991.81
2019-05-13T01:47:04.503Z,102990.72
2019-05-13T01:49:33.712Z,102995.27
2019-05-13T01:52:03.809Z,102990.70
2019-05-13T01:54:33.944Z,102989.98
2019-05-13T01:57:04.499Z,102992.59
2019-05-13T01:59:34.629Z,102997.99
2019-05-13T02:02:03.484Z,102991.66
2019-05-13T02:04:33.597Z,102994.84
2019-05-13T02:07:04.178Z,102995.94
2019-05-13T02:09:33.743Z,102998.23
2019-05-13T02:12:04.889Z,102993.13
2019-05-13T02:14:34.064Z,102992.83
2019-05-13T02:17:04.307Z,102982.57
2019-05-13T02:19:33.606Z,102990.07
2019-05-13T02:22:03.950Z,102994.11
2019-05-13T02:24:34.094Z,102997.30
2019-05-13T02:27:03.830Z,103002.64
2019-05-13T02:29:34.200Z,103010.63
2019-05-13T02:32:03.115Z,103011.58
2019-05-13T02:34:32.314Z,103013.92
2019-05-13T02:37:03.301Z,103020.95
2019-05-13T02:39:32.890Z,103022.83
2019-05-13T02:42:03.617Z,103021.18
2019-05-13T02:44:33.408Z,103017.80
2019-05-13T02:47:03.346Z,103021.36
2019-05-13T02:49:32.695Z,103028.00
2019-05-13T02:52:02.733Z,103015.06
2019-05-13T02:54:34.064Z,103015.12
2019-05-13T02:57:03.653Z,103017.39
2019-05-13T02:59:33.529Z,103024.42
2019-05-13T03:02:03.599Z,103025.38
2019-05-13T03:04:32.619Z,103017.23
2019-05-13T03:07:02.999Z,103029.47
2019-05-13T03:09:32.559Z,103022.59
2019-05-13T03:12:04.143Z,103026.19
2019-05-13T03:14:32.317Z,103030.61
2019-05-13T03:17:03.451Z,103029.02
2019-05-13T03:19:33.144Z,103026.06
2019-05-13T03:22:02.994Z,103030.54
2019-05-13T03:24:33.000Z,103033.64
2019-05-13T03:27:02.740Z,103028.03
2019-05-13T03:29:33.109Z,103036.36
2019-05-13T03:32:06.338Z,103046.48
2019-05-13T03:34:36.130Z,103045.73
2019-05-13T03:37:06.671Z,103051.91
2019-05-13T03:39:33.357Z,103058.47
2019-05-13T03:42:03.441Z,103056.38
2019-05-13T03:44:32.829Z,103055.08
2019-05-13T03:47:04.117Z,103050.70
2019-05-13T03:49:35.170Z,103051.16
2019-05-13T03:52:03.630Z,103052.05
2019-05-13T03:54:32.928Z,103053.31
2019-05-13T03:57:03.433Z,103051.55
2019-05-13T03:59:33.220Z,103058.78
2019-05-13T04:02:02.719Z,103060.87
2019-05-13T04:04:32.356Z,103070.36
2019-05-13T04:07:02.692Z,103066.34
2019-05-13T04:09:35.989Z,103061.05
2019-05-13T04:12:03.254Z,103075.30
2019-05-13T04:14:33.499Z,103068.64
2019-05-13T04:17:03.076Z,103065.84
2019-05-13T04:19:33.635Z,103075.10
2019-05-13T04:22:02.846Z,103072.42
2019-05-13T04:24:33.321Z,103081.16
2019-05-13T04:27:03.074Z,103086.33
2019-05-13T04:29:32.926Z,103088.20
2019-05-13T04:32:02.374Z,103089.62
2019-05-13T04:34:33.792Z,103097.61
2019-05-13T04:37:02.386Z,103100.70
2019-05-13T04:39:44.555Z,103105.46
2019-05-13T04:42:02.425Z,103111.08
2019-05-13T04:44:32.334Z,103110.51
2019-05-13T04:47:03.599Z,103112.96
2019-05-13T04:49:32.571Z,103110.05
2019-05-13T04:52:03.240Z,103111.75
2019-05-13T04:54:33.127Z,103114.14
2019-05-13T04:57:02.969Z,103111.48
2019-05-13T04:59:34.621Z,103117.98
2019-05-13T05:02:37.408Z,103113.96
2019-05-13T05:05:14.777Z,103120.36
2019-05-13T05:08:07.155Z,103124.42
2019-05-13T05:10:54.127Z,103131.82
2019-05-13T05:13:42.878Z,103136.31
2019-05-13T05:16:32.671Z,103133.95
2019-05-13T05:19:12.840Z,103134.63
2019-05-13T05:21:47.092Z,103137.51
2019-05-13T05:24:24.549Z,103149.20
2019-05-13T05:27:05.120Z,103145.35
2019-05-13T05:29:55.176Z,103147.41
2019-05-13T05:32:31.879Z,103153.33
2019-05-13T05:35:37.125Z,103152.55
2019-05-13T05:38:12.075Z,103154.18
2019-05-13T05:40:42.662Z,103142.73
2019-05-13T05:43:11.651Z,103150.10
2019-05-13T05:45:41.350Z,103152.05
2019-05-13T05:48:11.783Z,103144.94
2019-05-13T05:50:42.440Z,103146.72
2019-05-13T05:53:12.459Z,103140.34
2019-05-13T05:55:42.113Z,103141.28
2019-05-13T05:58:12.067Z,103142.22
2019-05-13T06:00:41.634Z,103133.13
2019-05-13T06:03:13.565Z,103140.97
2019-05-13T06:05:41.906Z,103135.01
2019-05-13T06:08:11.419Z,103136.69
2019-05-13T06:10:49.155Z,103134.42
2019-05-13T06:13:12.218Z,103138.68
2019-05-13T06:15:42.053Z,103140.11
2019-05-13T06:18:11.657Z,103131.33
2019-05-13T06:20:41.841Z,103136.30
2019-05-13T06:23:11.479Z,103138.25
2019-05-13T06:25:42.542Z,103135.94
2019-05-13T06:28:12.225Z,103134.67
2019-05-13T06:30:41.469Z,103137.66
2019-05-13T06:33:12.034Z,103136.98
2019-05-13T06:35:44.514Z,103127.47
2019-05-13T06:38:11.845Z,103131.46
2019-05-13T06:40:42.421Z,103129.27
2019-05-13T06:43:11.995Z,103134.68
2019-05-13T06:45:42.094Z,103125.81
2019-05-13T06:48:11.735Z,103138.55
2019-05-13T06:50:41.604Z,103130.34
2019-05-13T06:53:12.450Z,103133.14
2019-05-13T06:55:41.810Z,103133.47
2019-05-13T06:58:11.456Z,103133.88
2019-05-13T07:00:42.635Z,103139.13
2019-05-13T07:03:12.691Z,103140.41
2019-05-13T07:05:42.330Z,103128.44
2019-05-13T07:08:12.027Z,103128.03
2019-05-13T07:10:41.447Z,103135.41
2019-05-13T07:13:11.418Z,103135.77
2019-05-13T07:15:41.700Z,103134.24
2019-05-13T07:18:11.755Z,103140.17
2019-05-13T07:20:42.623Z,103133.27
2019-05-13T07:23:12.126Z,103130.83
2019-05-13T07:25:42.008Z,103132.34
2019-05-13T07:28:12.690Z,103127.19
2019-05-13T07:30:45.361Z,103134.24
2019-05-13T07:33:13.820Z,103134.33
2019-05-13T07:35:45.160Z,103132.41
2019-05-13T07:38:12.970Z,103129.64
2019-05-13T07:40:41.907Z,103136.09
2019-05-13T07:43:12.296Z,103134.24
2019-05-13T07:45:42.277Z,103142.77
2019-05-13T07:48:20.591Z,103129.62
2019-05-13T07:50:53.693Z,103133.02
2019-05-13T07:53:16.691Z,103129.70
2019-05-13T07:55:42.123Z,103135.74
2019-05-13T07:58:11.498Z,103128.66
2019-05-13T08:00:41.978Z,103129.36
2019-05-13T08:03:12.350Z,103136.88
2019-05-13T08:05:41.821Z,103134.28
2019-05-13T08:08:11.699Z,103130.40
2019-05-13T08:10:41.513Z,103137.31
2019-05-13T08:13:11.923Z,103133.52
2019-05-13T08:15:42.104Z,103130.64
2019-05-13T08:18:12.171Z,103128.16
2019-05-13T08:20:41.983Z,103131.08
2019-05-13T08:23:11.747Z,103131.15
2019-05-13T08:25:42.353Z,103129.58
2019-05-13T08:28:12.284Z,103138.71
2019-05-13T08:30:42.677Z,103139.67
2019-05-13T08:33:12.547Z,103139.23
2019-05-13T08:35:41.731Z,103140.44
2019-05-13T08:38:12.044Z,103135.24
2019-05-13T08:40:42.458Z,103135.05
2019-05-13T08:43:12.166Z,103142.37
2019-05-13T08:45:42.096Z,103125.88
2019-05-13T08:48:12.665Z,103125.56
2019-05-13T08:50:41.982Z,103110.55
2019-05-13T08:53:12.225Z,103121.91
2019-05-13T08:55:42.636Z,103123.30
2019-05-13T08:58:12.545Z,103113.64
2019-05-13T09:00:48.517Z,103123.30
2019-05-13T09:03:17.591Z,103121.98
2019-05-13T09:05:46.249Z,103117.67
2019-05-13T09:08:16.287Z,103124.02
2019-05-13T09:10:45.030Z,103122.48
2019-05-13T09:13:13.811Z,103125.28
2019-05-13T09:15:42.710Z,103122.76
2019-05-13T09:18:11.562Z,103125.20
2019-05-13T09:20:41.605Z,103122.80
2019-05-13T09:23:11.412Z,103119.02
2019-05-13T09:25:41.587Z,103114.17
2019-05-13T09:28:12.347Z,103111.49
2019-05-13T09:30:42.372Z,103112.22
2019-05-13T09:33:11.442Z,103118.42
2019-05-13T09:35:42.260Z,103126.14
2019-05-13T09:38:12.641Z,103121.97
2019-05-13T09:40:42.304Z,103125.99
2019-05-13T09:43:11.609Z,103122.12
2019-05-13T09:45:41.831Z,103126.50
2019-05-13T09:48:12.758Z,103127.11
2019-05-13T09:50:42.437Z,103126.78
2019-05-13T09:53:11.534Z,103128.03
2019-05-13T09:55:41.490Z,103127.88
2019-05-13T09:58:11.861Z,103126.73
2019-05-13T10:00:42.082Z,103118.23
2019-05-13T10:03:13.223Z,103115.08
2019-05-13T10:05:40.114Z,103122.98
2019-05-13T10:08:08.441Z,103133.62
2019-05-13T10:10:37.038Z,103117.45
2019-05-13T10:13:11.994Z,103125.26
2019-05-13T10:15:36.691Z,103122.08
2019-05-13T10:18:05.109Z,103115.37
2019-05-13T10:20:58.637Z,103113.56
2019-05-13T10:23:26.400Z,103109.23
2019-05-13T10:25:57.702Z,103101.91
2019-05-13T10:28:26.940Z,103110.76
2019-05-13T10:30:55.431Z,103105.56
2019-05-13T10:33:24.086Z,103098.45
2019-05-13T10:35:52.767Z,103105.16
2019-05-13T10:38:23.664Z,103106.80
2019-05-13T10:40:52.242Z,103099.55
2019-05-13T10:43:30.838Z,103098.94
2019-05-13T10:45:52.264Z,103103.67
2019-05-13T10:48:21.991Z,103100.48
2019-05-13T10:50:52.973Z,103092.56
2019-05-13T10:53:22.021Z,103098.74
2019-05-13T10:55:52.197Z,103078.70
2019-05-13T10:58:23.342Z,103089.66
2019-05-13T11:00:53.228Z,103081.89
2019-05-13T11:03:23.088Z,103076.98
2019-05-13T11:05:52.588Z,103072.40
2019-05-13T11:08:22.302Z,103080.87
2019-05-13T11:10:53.122Z,103077.51
2019-05-13T11:13:23.306Z,103071.98
2019-05-13T11:15:57.523Z,103059.96
2019-05-13T11:18:24.186Z,103072.88
2019-05-13T11:20:51.485Z,103064.22
2019-05-13T11:23:22.952Z,103059.38
2019-05-13T11:25:52.253Z,103060.63
2019-05-13T11:28:20.162Z,103060.73
2019-05-13T11:30:48.482Z,103059.67
2019-05-13T11:33:16.972Z,103053.30
2019-05-13T11:35:45.266Z,103054.50
2019-05-13T11:38:13.573Z,103053.23
2019-05-13T11:40:41.970Z,103060.59
2019-05-13T11:43:12.301Z,103054.32
2019-05-13T11:45:42.081Z,103048.30
2019-05-13T11:48:13.199Z,103052.14
2019-05-13T11:50:42.428Z,103043.16
2019-05-13T11:53:31.515Z,103041.17
2019-05-13T11:55:42.412Z,103034.90
2019-05-13T11:58:13.893Z,103031.16
2019-05-13T12:00:46.698Z,103034.28
2019-05-13T12:03:16.275Z,103020.16
2019-05-13T12:05:45.122Z,103018.28
2019-05-13T12:08:13.502Z,103023.58
2019-05-13T12:10:43.908Z,103012.83
2019-05-13T12:13:12.500Z,103011.41
2019-05-13T12:15:46.770Z,103008.98
2019-05-13T12:18:12.600Z,103008.86
2019-05-13T12:20:42.749Z,103009.59
2019-05-13T12:23:13.015Z,103008.49
2019-05-13T12:25:43.777Z,103007.16
2019-05-13T12:28:11.583Z,102994.63
2019-05-13T12:30:41.791Z,102990.75
2019-05-13T12:33:13.535Z,102990.75
2019-05-13T12:35:40.366Z,102993.66
2019-05-13T12:38:08.683Z,102990.52
2019-05-13T12:40:36.979Z,102983.50
2019-05-13T12:43:05.300Z,102982.42
2019-05-13T12:45:34.208Z,102985.94
2019-05-13T12:48:03.444Z,102983.39
2019-05-13T12:50:32.990Z,102978.68
2019-05-13T12:53:02.688Z,102982.06
2019-05-13T12:55:33.171Z,102976.63
2019-05-13T12:58:02.744Z,102979.52
2019-05-13T13:00:32.931Z,102975.39
2019-05-13T13:03:02.239Z,102975.64
2019-05-13T13:05:34.358Z,102973.93
2019-05-13T13:08:18.393Z,102970.67
2019-05-13T13:10:34.479Z,102966.25
2019-05-13T13:13:02.177Z,102971.90
2019-05-13T13:15:38.358Z,102958.28
2019-05-13T13:18:02.580Z,102944.52
2019-05-13T13:20:33.533Z,102951.64
2019-05-13T13:23:04.391Z,102952.82
2019-05-13T13:25:33.717Z,102945.33
2019-05-13T13:28:10.685Z,102953.62
2019-05-13T13:30:35.175Z,102939.27
2019-05-13T13:33:02.793Z,102942.44
2019-05-13T13:35:33.701Z,102934.61
2019-05-13T13:38:04.232Z,102935.63
2019-05-13T13:40:35.082Z,102937.06
2019-05-13T13:43:05.330Z,102937.05
2019-05-13T13:45:36.764Z,102934.88
2019-05-13T13:48:04.133Z,102920.78
2019-05-13T13:50:33.569Z,102924.52
2019-05-13T13:53:02.519Z,102919.20
2019-05-13T13:55:32.087Z,102920.77
2019-05-13T13:58:02.275Z,102927.93
2019-05-13T14:00:40.642Z,102916.67
2019-05-13T14:03:06.393Z,102920.69
2019-05-13T14:05:36.233Z,102919.24
2019-05-13T14:08:02.069Z,102916.35
2019-05-13T14:10:31.838Z,102916.18
2019-05-13T14:13:04.559Z,102912.20
2019-05-13T14:15:33.695Z,102909.16
2019-05-13T14:18:00.332Z,102897.00
2019-05-13T14:20:28.640Z,102901.25
2019-05-13T14:22:58.156Z,102898.84
2019-05-13T14:25:26.638Z,102890.23
2019-05-13T14:27:54.956Z,102891.80
2019-05-13T14:30:23.323Z,102895.00
2019-05-13T14:32:52.144Z,102895.81
2019-05-13T14:35:22.009Z,102889.11
2019-05-13T14:37:51.921Z,102890.30
2019-05-13T14:40:22.403Z,102884.64
2019-05-13T14:42:52.558Z,102882.06
2019-05-13T14:45:23.814Z,102879.60
2019-05-13T14:47:51.537Z,102871.31
2019-05-13T14:50:21.486Z,102873.48
2019-05-13T14:52:52.231Z,102870.56
2019-05-13T14:55:21.443Z,102875.47
2019-05-13T14:57:52.411Z,102880.78
2019-05-13T15:00:22.107Z,102880.17
2019-05-13T15:02:51.816Z,102877.56
2019-05-13T15:05:22.012Z,102873.50
2019-05-13T15:07:52.788Z,102875.86
2019-05-13T15:10:21.907Z,102886.77
2019-05-13T15:12:52.419Z,102883.00
2019-05-13T15:15:22.381Z,102880.86
2019-05-13T15:17:51.905Z,102863.08
2019-05-13T15:20:21.761Z,102854.53
2019-05-13T15:22:51.926Z,102873.33
2019-05-13T15:25:22.061Z,102858.02
2019-05-13T15:27:52.814Z,102864.72
2019-05-13T15:30:21.831Z,102862.09
2019-05-13T15:32:52.609Z,102863.69
2019-05-13T15:35:20.754Z,102857.65
2019-05-13T15:37:49.092Z,102852.83
2019-05-13T15:40:17.461Z,102853.55
2019-05-13T15:42:46.057Z,102852.88
2019-05-13T15:45:14.429Z,102853.48
2019-05-13T15:47:42.728Z,102852.61
2019-05-13T15:50:12.308Z,102842.95
2019-05-13T15:52:43.225Z,102842.73
2019-05-13T15:55:11.967Z,102838.86
2019-05-13T15:57:42.810Z,102844.17
2019-05-13T16:00:12.529Z,102843.72
2019-05-13T16:02:42.148Z,102838.20
2019-05-13T16:05:12.040Z,102831.83
2019-05-13T16:07:41.726Z,102837.02
2019-05-13T16:10:11.334Z,102831.22
2019-05-13T16:12:40.027Z,102825.75
2019-05-13T16:15:13.111Z,102825.86
2019-05-13T16:17:44.507Z,102831.30
2019-05-13T16:20:09.706Z,102821.91
2019-05-13T16:22:38.006Z,102825.41
2019-05-13T16:25:08.340Z,102828.10
2019-05-13T16:27:36.699Z,102825.45
2019-05-13T16:30:06.249Z,102822.94
2019-05-13T16:32:34.844Z,102819.70
2019-05-13T16:35:03.185Z,102823.61
2019-05-13T16:37:31.557Z,102823.87
2019-05-13T16:39:59.926Z,102816.77
2019-05-13T16:42:28.322Z,102820.41
2019-05-13T16:44:56.624Z,102824.39
2019-05-13T16:47:25.210Z,102821.97
2019-05-13T16:49:53.789Z,102816.77
2019-05-13T16:52:22.165Z,102813.27
2019-05-13T16:54:53.146Z,102805.22
2019-05-13T16:57:20.830Z,102811.52
2019-05-13T16:59:51.543Z,102810.04
2019-05-13T17:02:19.443Z,102804.88
2019-05-13T17:04:47.741Z,102810.68
2019-05-13T17:07:16.441Z,102804.12
2019-05-13T17:09:44.743Z,102803.05
2019-05-13T17:12:15.976Z,102811.86
2019-05-13T17:14:43.095Z,102813.19
2019-05-13T17:17:11.942Z,102808.77
2019-05-13T17:19:42.295Z,102803.48
2019-05-13T17:22:10.724Z,102801.81
2019-05-13T17:24:39.280Z,102811.80
2019-05-13T17:27:07.618Z,102807.36
2019-05-13T17:29:35.970Z,102802.16
2019-05-13T17:32:04.279Z,102802.45
2019-05-13T17:34:32.651Z,102805.39
2019-05-13T17:37:02.626Z,102800.94
2019-05-13T17:39:32.155Z,102802.03
2019-05-13T17:42:01.550Z,102794.47
2019-05-13T17:44:31.841Z,102792.30
2019-05-13T17:47:01.679Z,102798.70
2019-05-13T17:49:31.772Z,102787.16
2019-05-13T17:52:02.278Z,102781.73
2019-05-13T17:54:31.807Z,102792.73
2019-05-13T17:57:01.841Z,102790.19
2019-05-13T17:59:31.510Z,102783.34
2019-05-13T18:02:02.298Z,102781.30
2019-05-13T18:04:31.431Z,102780.82
2019-05-13T18:07:01.631Z,102780.36
2019-05-13T18:09:31.812Z,102781.11
2019-05-13T18:12:02.349Z,102780.54
2019-05-13T18:14:30.472Z,102784.88
2019-05-13T18:16:58.782Z,102788.07
2019-05-13T18:19:27.084Z,102783.50
2019-05-13T18:21:55.497Z,102782.89
2019-05-13T18:24:23.808Z,102781.46
2019-05-13T18:26:52.252Z,102781.60
2019-05-13T18:29:22.556Z,102780.03
2019-05-13T18:31:52.503Z,102781.86
2019-05-13T18:34:21.571Z,102784.41
2019-05-13T18:36:51.570Z,102784.42
2019-05-13T18:39:21.563Z,102776.09
2019-05-13T18:41:50.118Z,102777.69
2019-05-13T18:44:18.408Z,102783.34
2019-05-13T18:46:46.712Z,102783.34
2019-05-13T18:49:15.018Z,102781.42
2019-05-13T18:51:43.326Z,102770.61
2019-05-13T18:54:12.010Z,102778.94
2019-05-13T18:56:41.616Z,102780.75
2019-05-13T18:59:12.589Z,102778.45
2019-05-13T19:01:40.587Z,102781.61
2019-05-13T19:04:11.278Z,102787.88
2019-05-13T19:06:39.185Z,102785.22
2019-05-13T19:09:07.971Z,102784.02
2019-05-13T19:11:36.370Z,102791.46
2019-05-13T19:14:05.023Z,102790.01
2019-05-13T19:16:33.369Z,102792.77
2019-05-13T19:19:12.376Z,102790.14
2019-05-13T19:21:31.722Z,102798.19
2019-05-13T19:24:02.036Z,102795.52
2019-05-13T19:26:30.879Z,102803.92
2019-05-13T19:29:01.954Z,102796.45
2019-05-13T19:31:29.604Z,102799.91
2019-05-13T19:33:57.892Z,102800.72
2019-05-13T19:36:26.301Z,102800.49
2019-05-13T19:38:54.599Z,102800.46
2019-05-13T19:41:22.893Z,102798.27
2019-05-13T19:43:51.227Z,102805.95
2019-05-13T19:46:19.528Z,102803.17
2019-05-13T19:48:47.819Z,102797.75
2019-05-13T19:51:16.156Z,102798.08
2019-05-13T19:53:44.994Z,102804.78
2019-05-13T19:56:13.448Z,102800.45
2019-05-13T19:58:41.835Z,102801.64
2019-05-13T20:01:11.719Z,102802.22
2019-05-13T20:03:42.377Z,102807.46
2019-05-13T20:06:12.227Z,102803.58
2019-05-13T20:08:41.270Z,102807.14
2019-05-13T20:11:11.581Z,102802.56
2019-05-13T20:13:41.770Z,102807.31
2019-05-13T20:16:11.748Z,102799.37
2019-05-13T20:18:41.426Z,102804.04
2019-05-13T20:21:11.218Z,102809.63
2019-05-13T20:23:41.452Z,102811.29
2019-05-13T20:26:11.462Z,102809.44
2019-05-13T20:28:41.847Z,102810.52
2019-05-13T20:31:11.094Z,102814.91
2019-05-13T20:33:42.286Z,102817.98
2019-05-13T20:36:11.758Z,102809.52
2019-05-13T20:38:39.840Z,102809.01
2019-05-13T20:41:08.154Z,102818.58
2019-05-13T20:43:36.442Z,102816.56
2019-05-13T20:46:04.774Z,102823.02
2019-05-13T20:48:33.128Z,102822.03
2019-05-13T20:51:02.483Z,102811.52
2019-05-13T20:53:31.513Z,102824.57
2019-05-13T20:56:01.741Z,102826.30
2019-05-13T20:58:31.877Z,102830.47
2019-05-13T21:01:02.342Z,102829.55
2019-05-13T21:03:31.566Z,102828.44
2019-05-13T21:06:00.006Z,102838.00
2019-05-13T21:08:28.386Z,102835.77
2019-05-13T21:10:56.721Z,102838.24
2019-05-13T21:13:25.076Z,102837.33
2019-05-13T21:15:53.681Z,102841.20
2019-05-13T21:18:22.281Z,102838.41
2019-05-13T21:20:50.665Z,102847.11
2019-05-13T21:23:18.950Z,102844.39
2019-05-13T21:25:47.258Z,102849.38
2019-05-13T21:28:15.568Z,102847.06
2019-05-13T21:30:43.881Z,102847.09
2019-05-13T21:33:12.178Z,102850.76
2019-05-13T21:35:41.933Z,102852.75
2019-05-13T21:38:11.286Z,102847.70
2019-05-13T21:40:41.570Z,102842.98
2019-05-13T21:43:10.009Z,102841.80
2019-05-13T21:45:38.319Z,102847.06
2019-05-13T21:48:06.624Z,102845.87
2019-05-13T21:50:37.410Z,102849.64
2019-05-13T21:53:04.964Z,102851.52
2019-05-13T21:55:33.669Z,102851.64
2019-05-13T21:58:03.323Z,102851.39
2019-05-13T22:00:33.469Z,102848.51
2019-05-13T22:03:02.208Z,102850.67
2019-05-13T22:05:31.437Z,102847.38
2019-05-13T22:08:01.718Z,102856.49
2019-05-13T22:10:31.116Z,102850.20
2019-05-13T22:13:01.453Z,102861.95
2019-05-13T22:15:32.167Z,102846.52
2019-05-13T22:18:01.865Z,102854.89
2019-05-13T22:20:33.035Z,102836.65
2019-05-13T22:23:01.482Z,102849.33
2019-05-13T22:25:30.675Z,102844.23
2019-05-13T22:28:01.102Z,102842.81
2019-05-13T22:30:29.020Z,102839.52
2019-05-13T22:32:57.304Z,102840.06
2019-05-13T22:35:25.853Z,102836.40
2019-05-13T22:37:54.134Z,102832.91
2019-05-13T22:40:22.416Z,102832.80
2019-05-13T22:42:56.834Z,102836.05
2019-05-13T22:45:21.965Z,102834.91
2019-05-13T22:47:52.071Z,102837.35
2019-05-13T22:50:21.784Z,102829.64
2019-05-13T22:52:50.312Z,102831.05
2019-05-13T22:55:18.611Z,102831.77
2019-05-13T22:57:47.191Z,102830.56
2019-05-13T23:00:16.412Z,102836.25
2019-05-13T23:02:45.080Z,102830.73
2019-05-13T23:05:13.501Z,102830.33
2019-05-13T23:07:42.038Z,102839.53
2019-05-13T23:10:11.873Z,102829.56
2019-05-13T23:12:42.039Z,102833.95
2019-05-13T23:15:11.938Z,102836.84
2019-05-13T23:17:41.492Z,102830.55
2019-05-13T23:20:10.226Z,102833.84
2019-05-13T23:22:38.611Z,102835.90
2019-05-13T23:25:06.965Z,102836.10
2019-05-13T23:27:35.266Z,102839.98
2019-05-13T23:30:05.957Z,102837.15
2019-05-13T23:32:34.505Z,102835.84
2019-05-13T23:35:02.801Z,102840.98
2019-05-13T23:37:31.181Z,102842.06
2019-05-13T23:40:01.400Z,102837.14
2019-05-13T23:42:31.990Z,102837.78
2019-05-13T23:44:59.807Z,102835.16
2019-05-13T23:47:28.379Z,102833.53
2019-05-13T23:49:56.662Z,102836.02
2019-05-13T23:52:24.965Z,102830.42
2019-05-13T23:54:53.515Z,102834.63
2019-05-13T23:57:22.303Z,102839.03
2019-05-13T23:59:51.208Z,102838.09
